Time;durP1;ratioP1;P1;durP2;ratioP2;P2;SDS_P1;SDS_P2;PMS_P1;PMS_P2;Temp;Humidity;BMP_temperature;BMP_pressure;BME280_temperature;BME280_humidity;BME280_pressure;Samples;Min_cycle;Max_cycle;Signal;HPM_P1;HPM_P2
2023/08/15 00:00:32;;;;;;;6.28;3.20;;;;;;;21.14;100.00;101044.41;6300053;28;20049;-70
2023/08/15 00:03:35;;;;;;;4.28;2.72;;;;;;;21.13;100.00;101042.72;6302818;28;20049;-70
2023/08/15 00:06:36;;;;;;;5.50;3.05;;;;;;;21.12;100.00;101046.34;6304955;28;20356;-70
2023/08/15 00:09:38;;;;;;;5.55;2.90;;;;;;;21.09;100.00;101036.81;6305065;28;20048;-70
2023/08/15 00:12:39;;;;;;;6.30;3.08;;;;;;;21.10;100.00;101043.00;6305318;28;20051;-70
2023/08/15 00:15:40;;;;;;;4.68;2.28;;;;;;;21.08;100.00;101026.28;6304637;28;20352;-70
2023/08/15 00:18:44;;;;;;;5.90;2.58;;;;;;;21.07;100.00;101036.09;6304832;28;20055;-70
2023/08/15 00:21:45;;;;;;;8.68;3.28;;;;;;;21.06;100.00;101033.56;6304875;28;20052;-70
2023/08/15 00:24:47;;;;;;;6.30;2.75;;;;;;;21.06;100.00;101038.91;6304369;28;20051;-70
2023/08/15 00:27:48;;;;;;;3.17;2.20;;;;;;;21.02;100.00;101044.53;6304709;28;20048;-70
2023/08/15 00:30:51;;;;;;;5.47;2.25;;;;;;;21.02;100.00;101041.03;6304556;28;20052;-70
2023/08/15 00:33:53;;;;;;;4.85;2.55;;;;;;;20.96;100.00;101028.25;6304461;28;20048;-70
2023/08/15 00:36:55;;;;;;;2.88;2.20;;;;;;;20.96;100.00;101029.09;6304516;28;20053;-70
2023/08/15 00:39:56;;;;;;;3.50;2.65;;;;;;;20.93;100.00;101024.00;6304377;28;20436;-70
2023/08/15 00:42:57;;;;;;;8.07;3.50;;;;;;;20.92;100.00;101025.00;6304277;28;20052;-70
2023/08/15 00:46:00;;;;;;;4.80;2.75;;;;;;;20.91;100.00;101030.50;6304168;28;20045;-70
2023/08/15 00:49:03;;;;;;;3.88;2.30;;;;;;;20.88;100.00;101030.78;6304214;28;20063;-70
2023/08/15 00:52:06;;;;;;;3.08;2.10;;;;;;;20.90;100.00;101034.16;6304129;28;20053;-70
2023/08/15 00:55:09;;;;;;;3.88;2.70;;;;;;;20.88;100.00;101030.78;6303787;28;20143;-70
2023/08/15 00:58:11;;;;;;;3.67;2.25;;;;;;;20.87;100.00;101021.09;6303994;28;20052;-70
2023/08/15 01:01:16;;;;;;;2.92;2.38;;;;;;;20.84;100.00;101024.03;6303701;28;20456;-70
2023/08/15 01:04:19;;;;;;;5.70;2.47;;;;;;;20.83;100.00;101015.16;6303483;28;20128;-70
2023/08/15 01:07:21;;;;;;;3.88;2.30;;;;;;;20.83;100.00;101017.84;6303972;28;20139;-70
2023/08/15 01:10:23;;;;;;;3.30;2.10;;;;;;;20.83;100.00;101015.16;6303621;28;20370;-70
2023/08/15 01:13:30;;;;;;;3.17;2.33;;;;;;;20.84;100.00;101021.34;6303816;28;20051;-70
2023/08/15 01:16:37;;;;;;;4.45;1.98;;;;;;;20.82;100.00;101018.84;6303271;28;20508;-70
2023/08/15 01:19:44;;;;;;;2.78;1.77;;;;;;;20.80;100.00;101022.63;6301575;28;20052;-70
2023/08/15 01:22:48;;;;;;;3.67;2.60;;;;;;;20.80;100.00;101025.28;6280440;28;20045;-70
2023/08/15 01:25:54;;;;;;;3.30;2.22;;;;;;;20.78;100.00;101023.59;6294563;28;20436;-70
2023/08/15 01:28:56;;;;;;;3.80;2.38;;;;;;;20.76;100.00;101025.59;6303332;28;20055;-70
2023/08/15 01:32:05;;;;;;;3.20;2.00;;;;;;;20.76;100.00;101032.75;6303397;28;20052;-70
2023/08/15 01:35:14;;;;;;;3.25;2.33;;;;;;;20.75;100.00;101029.22;6302942;28;20067;-70
2023/08/15 01:38:20;;;;;;;;;;;;;;;20.73;100.00;101027.69;6303821;28;20053;-70
2023/08/15 01:41:26;;;;;;;3.13;2.10;;;;;;;20.72;100.00;101034.03;6303073;28;19927;-70
2023/08/15 01:44:29;;;;;;;7.05;2.60;;;;;;;20.70;100.00;101039.50;6302622;28;20455;-70
2023/08/15 01:47:31;;;;;;;5.43;2.28;;;;;;;20.68;100.00;101030.78;6302877;28;20045;-70
2023/08/15 01:50:32;;;;;;;5.43;2.60;;;;;;;20.65;100.00;101025.72;6302729;28;20463;-70
2023/08/15 01:53:35;;;;;;;3.67;2.50;;;;;;;20.63;100.00;101024.19;6302787;28;20056;-70
2023/08/15 01:56:37;;;;;;;4.18;1.92;;;;;;;20.58;100.00;101016.59;6302362;28;20045;-70
2023/08/15 01:59:39;;;;;;;4.15;2.25;;;;;;;20.54;100.00;101019.69;6302338;28;20044;-70
2023/08/15 02:02:40;;;;;;;7.50;2.58;;;;;;;20.51;100.00;101015.44;6302474;28;20053;-70
2023/08/15 02:05:42;;;;;;;3.15;2.40;;;;;;;20.49;100.00;101017.44;6302215;28;20052;-70
2023/08/15 02:08:43;;;;;;;3.15;2.42;;;;;;;20.47;100.00;101006.00;6302335;28;20055;-70
2023/08/15 02:11:46;;;;;;;3.67;1.92;;;;;;;20.44;100.00;101003.63;6290741;28;20056;-70
2023/08/15 02:14:47;;;;;;;4.82;2.63;;;;;;;20.41;100.00;101002.06;6301934;28;20109;-70
2023/08/15 02:17:48;;;;;;;3.45;2.40;;;;;;;20.40;100.00;100994.22;6301466;28;20054;-70
2023/08/15 02:20:50;;;;;;;4.88;2.53;;;;;;;20.40;100.00;100994.22;6301970;28;20059;-70
2023/08/15 02:23:51;;;;;;;4.82;2.53;;;;;;;20.38;100.00;100993.50;6301891;28;20052;-70
2023/08/15 02:26:54;;;;;;;4.18;2.67;;;;;;;20.35;100.00;100991.97;6301398;28;20056;-70
2023/08/15 02:29:56;;;;;;;3.90;2.28;;;;;;;20.34;100.00;101000.09;6301922;28;20060;-70
2023/08/15 02:32:57;;;;;;;5.72;2.33;;;;;;;20.33;100.00;100990.41;6301747;28;20485;-70
2023/08/15 02:36:04;;;;;;;5.05;3.00;;;;;;;20.31;100.00;100990.53;6301301;28;20052;-70
2023/08/15 02:39:06;;;;;;;4.78;2.35;;;;;;;20.30;100.00;100996.84;6301742;28;20501;-70
2023/08/15 02:42:09;;;;;;;3.20;2.03;;;;;;;20.30;100.00;100994.16;6301504;28;20049;-70
2023/08/15 02:45:10;;;;;;;4.22;2.30;;;;;;;20.27;100.00;100992.66;6301241;28;20056;-70
2023/08/15 02:48:12;;;;;;;3.28;2.33;;;;;;;20.25;100.00;100983.06;6301245;28;20348;-70
2023/08/15 02:51:13;;;;;;;5.43;2.65;;;;;;;20.30;100.00;100991.50;6301432;28;20063;-70
2023/08/15 02:54:15;;;;;;;2.33;1.80;;;;;;;20.28;100.00;100988.16;6300957;28;20052;-70
2023/08/15 02:57:17;;;;;;;2.40;1.80;;;;;;;20.27;100.00;100997.97;6301367;28;20055;-70
2023/08/15 03:00:19;;;;;;;2.60;2.10;;;;;;;20.27;100.00;100999.81;6300939;28;20437;-70
2023/08/15 03:03:20;;;;;;;4.10;2.20;;;;;;;20.26;100.00;100998.13;6301279;28;20059;-70
2023/08/15 03:06:22;;;;;;;3.78;2.45;;;;;;;20.25;100.00;100997.25;6300747;28;20045;-70
2023/08/15 03:09:23;;;;;;;4.03;2.35;;;;;;;20.23;100.00;100985.88;6300799;28;20059;-70
2023/08/15 03:12:26;;;;;;;3.30;2.40;;;;;;;20.24;100.00;100989.41;6300936;28;20055;-70
2023/08/15 03:15:27;;;;;;;3.25;2.00;;;;;;;20.21;100.00;101000.34;6300434;28;20045;-70
2023/08/15 03:18:29;;;;;;;4.50;2.35;;;;;;;20.20;100.00;101004.84;6300919;28;20051;-70
2023/08/15 03:21:30;;;;;;;2.47;1.90;;;;;;;20.18;100.00;101006.81;6291260;28;20048;-70
2023/08/15 03:24:32;;;;;;;3.95;2.17;;;;;;;20.19;100.00;101015.66;6291880;28;20048;-70
2023/08/15 03:27:35;;;;;;;4.55;2.15;;;;;;;20.16;100.00;101011.44;6299138;28;20057;-70
2023/08/15 03:30:36;;;;;;;3.42;2.40;;;;;;;20.14;100.00;101010.75;6291089;28;20451;-70
2023/08/15 03:33:37;;;;;;;3.95;2.20;;;;;;;20.12;100.00;100996.69;6300539;28;20056;-70
2023/08/15 03:36:39;;;;;;;4.55;2.38;;;;;;;20.09;100.00;100993.47;6299577;28;20356;-70
2023/08/15 03:39:40;;;;;;;2.85;2.22;;;;;;;20.07;100.00;100996.25;6300251;28;20053;-70
2023/08/15 03:42:43;;;;;;;3.40;2.25;;;;;;;20.08;100.00;100997.13;6300254;28;20356;-70
2023/08/15 03:45:44;;;;;;;3.40;1.90;;;;;;;20.07;100.00;100982.06;6284727;28;20048;-70
2023/08/15 03:48:46;;;;;;;5.50;1.73;;;;;;;20.06;100.00;100996.38;6250704;28;20136;-70
2023/08/15 03:51:47;;;;;;;3.28;2.33;;;;;;;20.02;100.00;100991.31;6250772;28;20052;-70
2023/08/15 03:54:49;;;;;;;3.30;1.95;;;;;;;20.01;100.00;100992.31;6250346;28;20049;-70
2023/08/15 03:57:51;;;;;;;3.25;2.00;;;;;;;19.99;100.00;100991.63;6250762;28;20052;-70
2023/08/15 04:00:53;;;;;;;6.43;2.60;;;;;;;19.97;100.00;100996.22;6250383;28;20053;-70
2023/08/15 04:03:56;;;;;;;3.45;2.53;;;;;;;19.95;100.00;101008.88;6250315;28;20049;-70
2023/08/15 04:06:57;;;;;;;4.00;2.13;;;;;;;19.93;100.00;101018.81;6250519;28;20073;-70
2023/08/15 04:09:59;;;;;;;4.10;2.40;;;;;;;19.90;100.00;101013.78;6250544;28;20054;-70
2023/08/15 04:13:02;;;;;;;6.95;1.95;;;;;;;19.91;100.00;101004.78;6250301;28;20359;-70
2023/08/15 04:16:03;;;;;;;4.88;1.90;;;;;;;19.92;100.00;101003.78;6269987;28;20052;-70
2023/08/15 04:19:05;;;;;;;2.67;2.00;;;;;;;19.91;100.00;101007.44;6293920;28;20053;-69
2023/08/15 04:22:06;;;;;;;3.80;2.17;;;;;;;19.90;100.00;101008.44;6256446;28;20546;-70
2023/08/15 04:25:09;;;;;;;3.80;2.53;;;;;;;19.91;100.00;101012.78;6249918;28;20175;-69
2023/08/15 04:28:12;;;;;;;3.90;2.75;;;;;;;19.92;100.00;101018.97;6250215;28;20049;-70
2023/08/15 04:31:13;;;;;;;7.47;2.50;;;;;;;19.92;100.00;101018.97;6250284;28;20060;-70
2023/08/15 04:34:15;;;;;;;3.95;2.47;;;;;;;19.91;100.00;101018.13;6249680;28;20065;-70
2023/08/15 04:37:16;;;;;;;3.75;2.35;;;;;;;19.93;100.00;101024.16;6250195;28;20056;-70
2023/08/15 04:40:30;;;;;;;4.25;2.15;;;;;;;19.96;100.00;101018.56;6249832;28;20052;-70
2023/08/15 04:43:33;;;;;;;4.05;2.53;;;;;;;20.01;100.00;101021.66;6263006;28;20053;-70
2023/08/15 04:46:35;;;;;;;2.58;1.85;;;;;;;20.05;100.00;101022.22;6260066;28;20041;-70
2023/08/15 04:49:36;;;;;;;5.65;2.28;;;;;;;20.10;100.00;101021.81;6272147;28;20080;-69
2023/08/15 04:52:37;;;;;;;5.22;2.92;;;;;;;20.16;100.00;101032.78;6279477;28;20053;-70
2023/08/15 04:55:39;;;;;;;3.75;2.42;;;;;;;20.19;100.00;101035.19;6278898;28;20052;-70
2023/08/15 04:58:42;;;;;;;5.00;2.42;;;;;;;20.24;100.00;101040.94;6279342;28;20056;-70
2023/08/15 05:01:43;;;;;;;4.25;2.58;;;;;;;20.28;100.00;101037.03;6318435;22;20348;-73
2023/08/15 05:04:44;;;;;;;3.08;2.50;;;;;;;20.32;100.00;101044.78;6302962;28;20051;-73
2023/08/15 05:07:46;;;;;;;2.85;2.42;;;;;;;20.36;100.00;101044.34;6303883;28;20049;-73
2023/08/15 05:10:47;;;;;;;4.07;2.17;;;;;;;20.39;100.00;101037.88;6303505;28;20048;-73
2023/08/15 05:13:50;;;;;;;4.95;2.78;;;;;;;20.41;100.00;101039.44;6303519;28;20049;-73
2023/08/15 05:16:51;;;;;;;5.55;2.70;;;;;;;20.43;100.00;101045.47;6303567;28;20051;-72
2023/08/15 05:19:53;;;;;;;2.65;2.10;;;;;;;20.43;100.00;101042.81;6301063;28;20056;-73
2023/08/15 05:22:54;;;;;;;3.80;2.22;;;;;;;20.43;100.00;101031.28;6302686;28;20044;-73
2023/08/15 05:25:56;;;;;;;7.00;2.28;;;;;;;20.42;100.00;101025.09;6303123;28;20052;-72
2023/08/15 05:28:58;;;;;;;2.95;2.10;;;;;;;20.46;100.00;101028.34;6302945;28;20337;-72
2023/08/15 05:32:00;;;;;;;4.22;2.50;;;;;;;20.46;100.00;101041.69;6299584;28;20066;-72
2023/08/15 05:35:01;;;;;;;2.88;2.08;;;;;;;20.47;100.00;101036.25;6290640;28;20040;-73
2023/08/15 05:38:02;;;;;;;4.78;1.88;;;;;;;20.47;100.00;101030.91;6287639;28;20053;-73
2023/08/15 05:41:04;;;;;;;4.05;2.42;;;;;;;20.45;100.00;101037.34;6299497;28;20048;-72
2023/08/15 05:44:07;;;;;;;3.42;2.35;;;;;;;20.43;100.00;101032.13;6302007;28;20080;-72
2023/08/15 05:47:08;;;;;;;4.85;2.65;;;;;;;20.42;100.00;101035.78;6301782;28;20040;-72
2023/08/15 05:50:10;;;;;;;4.97;2.30;;;;;;;20.41;100.00;101041.28;6295993;28;20071;-73
2023/08/15 05:53:12;;;;;;;4.50;2.30;;;;;;;20.40;100.00;101048.44;6299109;28;20073;-73
2023/08/15 05:56:13;;;;;;;3.40;2.13;;;;;;;20.40;100.00;101066.28;6300473;28;20048;-73
2023/08/15 05:59:16;;;;;;;3.72;2.55;;;;;;;20.40;100.00;101093.00;6301453;28;20056;-72
2023/08/15 06:02:19;;;;;;;5.20;2.53;;;;;;;20.41;100.00;101100.00;6300407;28;20044;-73
2023/08/15 06:05:22;;;;;;;3.85;2.40;;;;;;;20.42;100.00;101112.38;6300541;28;20061;-72
2023/08/15 06:08:23;;;;;;;5.72;2.85;;;;;;;20.41;100.00;101114.19;6301785;28;20044;-72
2023/08/15 06:11:25;;;;;;;4.25;2.30;;;;;;;20.42;100.00;101125.72;6302427;28;20055;-72
2023/08/15 06:14:27;;;;;;;5.72;2.80;;;;;;;20.41;100.00;101132.03;6301994;28;20053;-72
2023/08/15 06:17:29;;;;;;;3.97;2.30;;;;;;;20.40;100.00;101135.69;6302393;28;20048;-72
2023/08/15 06:20:31;;;;;;;5.68;3.40;;;;;;;20.40;100.00;101147.22;6302089;28;20045;-72
2023/08/15 06:23:32;;;;;;;7.25;2.70;;;;;;;20.34;100.00;101145.06;6302221;28;20051;-72
2023/08/15 06:26:33;;;;;;;7.95;3.25;;;;;;;20.34;100.00;101144.22;6301606;28;20440;-73
2023/08/15 06:29:37;;;;;;;4.57;2.88;;;;;;;20.31;100.00;101160.53;6301824;28;20372;-74
2023/08/15 06:32:38;;;;;;;3.70;2.95;;;;;;;20.29;100.00;101166.00;6301648;28;20440;-74
2023/08/15 06:35:39;;;;;;;6.50;3.25;;;;;;;20.26;100.00;101153.78;6301389;28;20433;-72
2023/08/15 06:38:41;;;;;;;4.03;2.80;;;;;;;20.22;100.00;101146.16;6301784;28;20056;-74
2023/08/15 06:41:42;;;;;;;6.22;3.65;;;;;;;20.19;100.00;101141.94;6301475;28;20051;-74
2023/08/15 06:44:45;;;;;;;6.30;3.40;;;;;;;20.19;100.00;101143.75;6301260;28;20063;-74
2023/08/15 06:47:46;;;;;;;8.57;4.22;;;;;;;20.18;100.00;101152.75;6301440;28;20052;-74
2023/08/15 06:50:48;;;;;;;4.68;2.85;;;;;;;20.14;100.00;101149.50;6301117;28;20346;-73
2023/08/15 06:53:50;;;;;;;4.93;3.33;;;;;;;20.13;100.00;101139.81;6300944;28;20057;-75
2023/08/15 06:56:51;;;;;;;11.43;4.03;;;;;;;20.16;100.00;101142.19;6301096;28;20117;-72
2023/08/15 06:59:54;;;;;;;6.78;3.85;;;;;;;20.17;100.00;101119.06;6298074;28;20443;-74
2023/08/15 07:02:55;;;;;;;6.10;3.60;;;;;;;20.15;100.00;101103.16;6300943;28;20360;-74
2023/08/15 07:05:57;;;;;;;5.07;3.50;;;;;;;20.15;100.00;101104.97;6300720;28;20044;-73
2023/08/15 07:08:58;;;;;;;10.93;3.55;;;;;;;20.13;100.00;101094.44;6300937;28;20049;-73
2023/08/15 07:12:00;;;;;;;9.27;3.55;;;;;;;20.13;100.00;101105.13;6300955;28;20056;-73
2023/08/15 07:15:04;;;;;;;7.22;3.53;;;;;;;20.10;100.00;101101.88;6300557;28;20139;-73
2023/08/15 07:18:05;;;;;;;9.82;3.30;;;;;;;20.08;100.00;101079.84;6300688;28;20348;-73
2023/08/15 07:21:07;;;;;;;3.78;3.00;;;;;;;20.12;100.00;101058.06;6300565;28;20048;-73
2023/08/15 07:24:08;;;;;;;5.45;3.58;;;;;;;20.14;100.00;101084.63;6300397;28;20348;-74
2023/08/15 07:27:10;;;;;;;10.27;4.07;;;;;;;20.14;100.00;101122.81;6300308;28;20181;-73
2023/08/15 07:30:13;;;;;;;7.38;4.15;;;;;;;20.15;100.00;101142.34;6300697;28;20056;-74
2023/08/15 07:33:15;;;;;;;8.30;4.47;;;;;;;20.15;100.00;101139.66;6300723;28;20056;-74
2023/08/15 07:36:16;;;;;;;5.15;3.28;;;;;;;20.16;100.00;101150.19;6300381;28;20048;-74
2023/08/15 07:39:18;;;;;;;5.53;4.15;;;;;;;20.15;100.00;101171.69;6300440;28;20356;-73
2023/08/15 07:42:19;;;;;;;8.85;4.30;;;;;;;20.16;100.00;101142.19;6300277;28;20044;-74
2023/08/15 07:45:22;;;;;;;6.50;4.55;;;;;;;20.25;100.00;101145.88;6300145;28;20040;-73
2023/08/15 07:48:24;;;;;;;8.88;3.97;;;;;;;20.27;100.00;101134.09;6300286;28;20455;-73
2023/08/15 07:51:25;;;;;;;5.90;4.25;;;;;;;20.38;100.00;101143.81;6300302;28;20059;-73
2023/08/15 07:54:27;;;;;;;7.15;4.00;;;;;;;20.37;100.00;101165.31;6299912;28;20055;-73
2023/08/15 07:57:28;;;;;;;7.28;4.40;;;;;;;20.38;100.00;101167.84;6300178;28;20600;-73
2023/08/15 08:00:31;;;;;;;8.98;4.70;;;;;;;20.43;100.00;101170.97;6299960;28;20052;-73
2023/08/15 08:03:33;;;;;;;7.90;4.32;;;;;;;20.47;100.00;101171.53;6300307;28;20089;-73
2023/08/15 08:06:34;;;;;;;8.18;4.00;;;;;;;20.51;100.00;101159.63;6299789;28;20142;-73
2023/08/15 08:09:35;;;;;;;7.03;4.10;;;;;;;20.54;100.00;101175.41;6300021;28;20060;-73
2023/08/15 08:12:37;;;;;;;8.48;4.28;;;;;;;20.51;100.00;101167.66;6300067;28;20053;-74
2023/08/15 08:15:39;;;;;;;6.40;4.05;;;;;;;20.48;100.00;101167.91;6299433;28;20044;-74
2023/08/15 08:18:41;;;;;;;5.22;3.78;;;;;;;20.50;100.00;101180.16;6300035;28;20048;-75
2023/08/15 08:21:43;;;;;;;7.28;3.75;;;;;;;20.54;100.00;101177.22;6299779;28;20052;-74
2023/08/15 08:24:44;;;;;;;9.02;4.10;;;;;;;20.58;100.00;101181.31;6302824;28;20061;-74
2023/08/15 08:27:46;;;;;;;7.50;4.28;;;;;;;20.62;100.00;101183.59;6304718;28;20048;-74
2023/08/15 08:30:49;;;;;;;7.00;4.60;;;;;;;20.67;100.00;101204.53;6304827;28;20048;-73
2023/08/15 08:33:51;;;;;;;7.53;4.25;;;;;;;20.72;100.00;101205.81;6304090;28;20044;-74
2023/08/15 08:36:52;;;;;;;6.40;3.65;;;;;;;20.78;100.00;101199.06;6304722;28;20049;-73
2023/08/15 08:39:54;;;;;;;8.68;3.55;;;;;;;20.76;100.00;101201.06;6304456;28;20064;-74
2023/08/15 08:42:55;;;;;;;5.82;3.28;;;;;;;20.75;100.00;101210.03;6304325;28;20049;-73
2023/08/15 08:46:00;;;;;;;6.05;3.25;;;;;;;20.87;100.00;101208.09;6304084;28;20044;-73
2023/08/15 08:49:04;;;;;;;6.57;3.38;;;;;;;20.94;100.00;101194.06;6304119;28;20048;-73
2023/08/15 08:52:06;;;;;;;4.03;2.83;;;;;;;20.99;100.00;101199.84;6304294;28;20052;-73
2023/08/15 08:55:08;;;;;;;4.53;3.00;;;;;;;20.98;100.00;101191.94;6303813;28;20565;-73
2023/08/15 08:58:12;;;;;;;5.07;2.47;;;;;;;20.99;100.00;101202.50;6304270;28;20048;-73
2023/08/15 09:01:15;;;;;;;5.38;3.25;;;;;;;21.12;100.00;101206.72;6303851;28;20094;-73
2023/08/15 09:04:19;;;;;;;6.00;3.22;;;;;;;21.17;100.00;101208.00;6303574;28;20075;-74
2023/08/15 09:07:20;;;;;;;5.03;3.63;;;;;;;21.14;100.00;101207.44;6303771;28;20063;-74
2023/08/15 09:10:22;;;;;;;5.78;3.45;;;;;;;21.17;100.00;101215.19;6303885;28;20049;-73
2023/08/15 09:13:24;;;;;;;4.80;2.80;;;;;;;21.19;100.00;101214.06;6303662;28;20134;-73
2023/08/15 09:16:27;;;;;;;4.85;3.10;;;;;;;21.25;100.00;101224.19;6303518;28;20041;-74
2023/08/15 09:19:28;;;;;;;6.10;4.10;;;;;;;21.33;100.00;101220.84;6303560;28;20045;-74
2023/08/15 09:22:30;;;;;;;4.93;3.25;;;;;;;21.27;100.00;101224.06;6303430;28;20052;-74
2023/08/15 09:25:33;;;;;;;4.47;2.88;;;;;;;21.33;100.00;101222.69;6303178;28;20045;-73
2023/08/15 09:28:39;;;;;;;4.38;3.30;;;;;;;21.35;100.00;101226.91;6303333;28;20052;-73
2023/08/15 09:31:43;;;;;;;8.30;4.05;;;;;;;21.38;100.00;101223.94;6303377;28;20057;-73
2023/08/15 09:34:44;;;;;;;8.88;4.55;;;;;;;21.37;100.00;101224.94;6301768;28;20052;-74
2023/08/15 09:37:47;;;;;;;9.20;4.32;;;;;;;21.48;100.00;101213.25;6303179;28;20131;-74
2023/08/15 09:40:49;;;;;;;7.38;3.90;;;;;;;21.57;100.00;101222.25;6302984;28;20481;-73
2023/08/15 09:43:51;;;;;;;8.40;4.10;;;;;;;21.72;100.00;101224.38;6302992;28;20080;-74
2023/08/15 09:46:54;;;;;;;10.43;4.35;;;;;;;21.81;100.00;101209.28;6302984;28;20044;-74
2023/08/15 09:49:56;;;;;;;5.88;4.15;;;;;;;21.86;100.00;101219.56;6303025;28;20055;-73
2023/08/15 09:52:59;;;;;;;9.13;4.65;;;;;;;21.79;100.00;101224.63;6302900;28;20052;-73
2023/08/15 09:56:01;;;;;;;7.95;4.13;;;;;;;21.81;100.00;101228.03;6302695;28;20471;-74
2023/08/15 09:59:03;;;;;;;9.15;4.32;;;;;;;21.86;100.00;101225.75;6302661;28;20348;-73
2023/08/15 10:02:21;;;;;;;9.45;4.38;;;;;;;21.95;100.00;101226.72;6302325;28;20098;-73
2023/08/15 10:05:24;;;;;;;6.45;4.10;;;;;;;21.82;100.00;101231.53;6302392;28;20044;-74
2023/08/15 10:08:25;;;;;;;8.35;4.50;;;;;;;21.91;100.00;101236.88;6302374;28;20048;-73
2023/08/15 10:11:30;;;;;;;9.68;4.80;;;;;;;21.91;100.00;101239.56;6302363;28;20059;-73
2023/08/15 10:14:32;;;;;;;6.60;4.82;;;;;;;21.92;100.00;101240.38;6302028;28;20078;-73
2023/08/15 10:17:35;;;;;;;6.80;4.18;;;;;;;21.96;100.00;101236.44;6302201;28;20047;-73
2023/08/15 10:20:38;;;;;;;7.53;4.47;;;;;;;21.91;100.00;101236.03;6301877;28;20352;-73
2023/08/15 10:23:40;;;;;;;7.53;4.32;;;;;;;21.87;100.00;101248.84;6302153;28;20056;-73
2023/08/15 10:26:43;;;;;;;7.38;5.05;;;;;;;21.92;100.00;101249.25;6301588;28;20048;-74
2023/08/15 10:29:55;;;;;;;8.30;5.97;;;;;;;22.04;100.00;101244.59;6301944;28;20133;-74
2023/08/15 10:33:00;;;;;;;10.40;5.72;;;;;;;22.18;100.00;101246.00;6301622;28;20056;-74
2023/08/15 10:36:09;;;;;;;7.35;5.38;;;;;;;22.15;100.00;101240.94;6301582;28;20056;-73
2023/08/15 10:39:10;;;;;;;7.88;5.82;;;;;;;22.18;100.00;101243.34;6301566;28;20074;-73
2023/08/15 10:42:12;;;;;;;10.77;6.35;;;;;;;22.17;100.00;101252.38;6301646;28;20129;-73
2023/08/15 10:45:14;;;;;;;14.15;7.10;;;;;;;22.22;100.00;101252.78;6301064;28;20059;-73
2023/08/15 10:48:37;;;;;;;11.48;6.25;;;;;;;22.23;100.00;101249.94;6301084;28;20048;-73
2023/08/15 10:51:39;;;;;;;9.48;5.80;;;;;;;22.19;100.00;101251.22;6301250;28;20049;-72
2023/08/15 10:54:41;;;;;;;9.38;6.45;;;;;;;22.18;100.00;101254.03;6301132;28;20055;-73
2023/08/15 10:57:42;;;;;;;9.68;5.97;;;;;;;22.14;100.00;101266.88;6301075;28;20356;-73
2023/08/15 11:00:44;;;;;;;9.43;5.95;;;;;;;22.38;100.00;101262.84;6317671;22;20440;-70
2023/08/15 11:03:49;;;;;;;8.45;5.32;;;;;;;22.39;100.00;101262.72;6275621;28;20075;-70
2023/08/15 11:06:52;;;;;;;9.38;5.75;;;;;;;22.52;100.00;101265.06;6255890;28;20050;-70
2023/08/15 11:09:53;;;;;;;6.70;5.30;;;;;;;22.53;100.00;101264.94;6251334;28;20384;-70
2023/08/15 11:12:55;;;;;;;10.95;6.32;;;;;;;22.63;100.00;101261.38;6251209;28;20452;-70
2023/08/15 11:15:56;;;;;;;9.75;6.03;;;;;;;22.81;100.00;101258.75;6250915;28;20572;-70
2023/08/15 11:18:59;;;;;;;13.63;7.13;;;;;;;22.78;100.00;101260.72;6251221;28;20049;-70
2023/08/15 11:22:01;;;;;;;8.45;6.32;;;;;;;22.87;100.00;101264.34;6251081;28;20049;-69
2023/08/15 11:25:03;;;;;;;13.65;5.82;;;;;;;22.84;100.00;101275.34;6250814;28;20442;-69
2023/08/15 11:28:06;;;;;;;12.57;5.78;;;;;;;22.81;100.00;101267.63;6250867;28;20464;-69
2023/08/15 11:31:09;;;;;;;8.55;5.18;;;;;;;22.93;100.00;101262.94;6250907;28;20441;-69
2023/08/15 11:34:12;;;;;;;9.05;5.03;;;;;;;22.99;100.00;101268.56;6250502;28;20492;-69
2023/08/15 11:37:14;;;;;;;6.88;4.85;;;;;;;22.90;100.00;101265.94;6250923;28;20056;-69
2023/08/15 11:40:15;;;;;;;8.93;4.78;;;;;;;22.76;100.00;101275.28;6250603;28;20349;-69
2023/08/15 11:43:17;;;;;;;7.45;4.40;;;;;;;22.87;100.00;101276.91;6250914;28;20071;-69
2023/08/15 11:46:18;;;;;;;8.10;4.13;;;;;;;22.77;100.00;101279.63;6250230;28;20462;-69
2023/08/15 11:49:22;;;;;;;9.00;3.88;;;;;;;22.90;100.00;101279.31;6250592;28;20072;-69
2023/08/15 11:52:23;;;;;;;9.63;4.78;;;;;;;23.00;100.00;101275.59;6250499;28;20056;-69
2023/08/15 11:55:25;;;;;;;8.23;4.00;;;;;;;23.47;100.00;101283.47;6250166;28;20326;-70
2023/08/15 11:58:28;;;;;;;5.57;3.47;;;;;;;23.85;100.00;101284.19;6249577;28;20068;-69
2023/08/15 12:01:29;;;;;;;9.07;3.70;;;;;;;24.17;100.00;101282.75;6250335;28;20056;-69
2023/08/15 12:04:35;;;;;;;9.38;3.70;;;;;;;24.39;100.00;101287.63;6250243;28;20056;-70
2023/08/15 12:07:37;;;;;;;8.50;3.13;;;;;;;24.70;100.00;101279.88;6250220;28;20046;-75
2023/08/15 12:10:39;;;;;;;5.78;3.15;;;;;;;24.71;100.00;101283.44;6250301;28;20357;-77
2023/08/15 12:13:41;;;;;;;5.15;2.60;;;;;;;24.37;100.00;101280.72;6250196;28;20350;-79
2023/08/15 12:16:42;;;;;;;5.72;3.13;;;;;;;24.09;100.00;101288.91;6250427;28;20041;-73
2023/08/15 12:19:45;;;;;;;7.30;3.35;;;;;;;23.91;100.00;101288.09;6250191;28;20373;-74
2023/08/15 12:22:47;;;;;;;5.43;2.85;;;;;;;24.02;100.00;101290.50;6250233;28;20088;-76
2023/08/15 12:25:49;;;;;;;9.07;2.85;;;;;;;23.97;100.00;101296.34;6249842;28;20077;-68
2023/08/15 12:28:50;;;;;;;6.68;2.47;;;;;;;24.00;100.00;101296.06;6250214;28;20049;-71
2023/08/15 12:31:51;;;;;;;6.68;2.05;;;;;;;24.07;100.00;101290.03;6250084;28;20053;-71
2023/08/15 12:34:54;;;;;;;4.07;2.95;;;;;;;24.28;100.00;101287.84;6249865;28;20381;-71
2023/08/15 12:37:55;;;;;;;6.00;3.28;;;;;;;24.52;100.00;101284.50;6250141;28;20049;-71
2023/08/15 12:40:57;;;;;;;7.65;3.00;;;;;;;24.77;100.00;101275.56;6250130;28;20050;-71
2023/08/15 12:43:59;;;;;;;4.35;2.10;;;;;;;25.03;100.00;101283.56;6249813;28;20046;-71
2023/08/15 12:47:00;;;;;;;3.97;2.30;;;;;;;25.23;100.00;101277.94;6249771;28;20050;-71
2023/08/15 12:50:03;;;;;;;4.38;2.03;;;;;;;25.16;100.00;101276.91;6249876;28;20476;-73
2023/08/15 12:53:05;;;;;;;5.47;2.08;;;;;;;24.87;100.00;101282.66;6249720;28;20419;-71
2023/08/15 12:56:06;;;;;;;4.80;1.95;;;;;;;24.69;100.00;101290.81;6249691;28;20124;-73
2023/08/15 12:59:07;;;;;;;3.15;2.10;;;;;;;24.87;100.00;101293.41;6249673;28;20041;-73
2023/08/15 13:02:09;;;;;;;3.83;2.20;;;;;;;24.80;100.00;101290.53;6249767;28;20081;-73
2023/08/15 13:05:12;;;;;;;4.20;2.00;;;;;;;24.72;100.00;101294.03;6249447;28;20426;-73
2023/08/15 13:08:14;;;;;;;8.77;2.13;;;;;;;24.90;100.00;101290.41;6249804;28;20046;-73
2023/08/15 13:11:16;;;;;;;4.95;2.08;;;;;;;25.35;100.00;101286.56;6252043;28;20060;-73
2023/08/15 13:14:17;;;;;;;3.63;2.05;;;;;;;25.53;100.00;101289.94;6252716;28;20433;-73
2023/08/15 13:17:18;;;;;;;5.93;2.28;;;;;;;25.68;100.00;101293.66;6253948;28;20053;-73
2023/08/15 13:20:21;;;;;;;2.20;1.48;;;;;;;25.54;100.00;101294.31;6253322;28;20046;-73
2023/08/15 13:23:23;;;;;;;5.30;1.98;;;;;;;25.42;100.00;101290.25;6253456;28;20041;-74
2023/08/15 13:26:24;;;;;;;6.10;2.13;;;;;;;25.12;100.00;101297.91;6253294;28;20053;-73
2023/08/15 13:29:26;;;;;;;5.07;2.67;;;;;;;24.88;100.00;101297.78;6253325;28;20045;-73
2023/08/15 13:32:27;;;;;;;1.95;1.40;;;;;;;24.82;100.00;101295.75;6253470;28;20445;-73
2023/08/15 13:35:30;;;;;;;3.70;1.50;;;;;;;25.05;100.00;101299.53;6253340;28;20480;-73
2023/08/15 13:38:32;;;;;;;4.32;1.95;;;;;;;25.34;100.00;101301.81;6253450;28;20049;-72
2023/08/15 13:41:33;;;;;;;3.75;1.65;;;;;;;25.63;100.00;101295.16;6253560;28;20053;-73
2023/08/15 13:44:35;;;;;;;5.25;1.50;;;;;;;25.70;100.00;101297.00;6253164;28;20060;-73
2023/08/15 13:47:37;;;;;;;2.58;1.40;;;;;;;25.51;100.00;101295.47;6253100;28;20049;-72
2023/08/15 13:50:39;;;;;;;4.88;2.05;;;;;;;25.16;100.00;101311.88;6253047;28;20334;-72
2023/08/15 13:53:41;;;;;;;4.20;1.40;;;;;;;24.98;100.00;101298.47;6253072;28;20072;-72
2023/08/15 13:56:42;;;;;;;1.52;1.00;;;;;;;24.80;100.00;101304.00;6252750;28;20052;-72